sensor_id;sensor_type;location;lat;lon;timestamp;pressure;altitude;pressure_sealevel;temperature;humidity
12172;BME280;6149;52.418;13.668;2023-05-14T00:02:08;101607.94;;;9.78;100.00
12172;BME280;6149;52.418;13.668;2023-05-14T00:04:34;101608.03;;;9.75;100.00
12172;BME280;6149;52.418;13.668;2023-05-14T00:07:02;101600.19;;;9.71;100.00
12172;BME280;6149;52.418;13.668;2023-05-14T00:09:29;101601.22;;;9.67;100.00
12172;BME280;6149;52.418;13.668;2023-05-14T00:11:57;101598.84;;;9.60;100.00
12172;BME280;6149;52.418;13.668;2023-05-14T00:14:24;101595.41;;;9.58;100.00
12172;BME280;6149;52.418;13.668;2023-05-14T00:16:51;101591.94;;;9.56;100.00
12172;BME280;6149;52.418;13.668;2023-05-14T00:19:20;101587.69;;;9.52;100.00
12172;BME280;6149;52.418;13.668;2023-05-14T00:21:47;101594.78;;;9.50;100.00
12172;BME280;6149;52.418;13.668;2023-05-14T00:24:13;101593.09;;;9.47;100.00
12172;BME280;6149;52.418;13.668;2023-05-14T00:26:41;101591.38;;;9.46;100.00
12172;BME280;6149;52.418;13.668;2023-05-14T00:29:11;101587.91;;;9.44;100.00
12172;BME280;6149;52.418;13.668;2023-05-14T00:31:39;101585.34;;;9.43;100.00
12172;BME280;6149;52.418;13.668;2023-05-14T00:34:05;101586.28;;;9.40;100.00
12172;BME280;6149;52.418;13.668;2023-05-14T00:36:38;101583.75;;;9.37;100.00
12172;BME280;6149;52.418;13.668;2023-05-14T00:39:04;101583.84;;;9.34;100.00
12172;BME280;6149;52.418;13.668;2023-05-14T00:41:32;101583.06;;;9.30;100.00
12172;BME280;6149;52.418;13.668;2023-05-14T00:44:00;101579.72;;;9.27;100.00
12172;BME280;6149;52.418;13.668;2023-05-14T00:46:27;101576.34;;;9.22;100.00
12172;BME280;6149;52.418;13.668;2023-05-14T00:48:54;101582.59;;;9.19;100.00
12172;BME280;6149;52.418;13.668;2023-05-14T00:51:23;101577.44;;;9.15;100.00
12172;BME280;6149;52.418;13.668;2023-05-14T00:53:52;101581.19;;;9.08;100.00
12172;BME280;6149;52.418;13.668;2023-05-14T00:56:21;101578.63;;;9.04;100.00
12172;BME280;6149;52.418;13.668;2023-05-14T00:58:47;101576.00;;;9.04;100.00
12172;BME280;6149;52.418;13.668;2023-05-14T01:01:18;101577.88;;;9.01;100.00
12172;BME280;6149;52.418;13.668;2023-05-14T01:03:46;101574.50;;;8.96;100.00
12172;BME280;6149;52.418;13.668;2023-05-14T01:06:16;101581.72;;;8.91;100.00
12172;BME280;6149;52.418;13.668;2023-05-14T01:08:55;101576.53;;;8.88;100.00
12172;BME280;6149;52.418;13.668;2023-05-14T01:11:32;101571.44;;;8.82;100.00
12172;BME280;6149;52.418;13.668;2023-05-14T01:14:13;101572.53;;;8.75;100.00
12172;BME280;6149;52.418;13.668;2023-05-14T01:16:47;101577.00;;;8.73;100.00
12172;BME280;6149;52.418;13.668;2023-05-14T01:19:20;101572.72;;;8.68;100.00
12172;BME280;6149;52.418;13.668;2023-05-14T01:21:49;101569.34;;;8.63;100.00
12172;BME280;6149;52.418;13.668;2023-05-14T01:24:15;101566.84;;;8.59;100.00
12172;BME280;6149;52.418;13.668;2023-05-14T01:26:42;101573.09;;;8.55;100.00
12172;BME280;6149;52.418;13.668;2023-05-14T01:29:12;101571.44;;;8.52;100.00
12172;BME280;6149;52.418;13.668;2023-05-14T01:31:43;101574.97;;;8.53;100.00
12172;BME280;6149;52.418;13.668;2023-05-14T01:34:11;101563.50;;;8.54;100.00
12172;BME280;6149;52.418;13.668;2023-05-14T01:36:40;101566.94;;;8.56;100.00
12172;BME280;6149;52.418;13.668;2023-05-14T01:39:10;101561.56;;;8.59;100.00
12172;BME280;6149;52.418;13.668;2023-05-14T01:41:41;101561.63;;;8.57;100.00
12172;BME280;6149;52.418;13.668;2023-05-14T01:44:10;101559.03;;;8.56;100.00
12172;BME280;6149;52.418;13.668;2023-05-14T01:46:36;101557.28;;;8.55;100.00
12172;BME280;6149;52.418;13.668;2023-05-14T01:49:04;101560.91;;;8.52;100.00
12172;BME280;6149;52.418;13.668;2023-05-14T01:51:31;101556.50;;;8.53;100.00
12172;BME280;6149;52.418;13.668;2023-05-14T01:53:59;101553.97;;;8.50;100.00
12172;BME280;6149;52.418;13.668;2023-05-14T01:56:30;101561.03;;;8.48;100.00
12172;BME280;6149;52.418;13.668;2023-05-14T01:59:00;101557.63;;;8.44;100.00
12172;BME280;6149;52.418;13.668;2023-05-14T02:01:27;101555.06;;;8.41;100.00
12172;BME280;6149;52.418;13.668;2023-05-14T02:03:54;101553.31;;;8.42;100.00
12172;BME280;6149;52.418;13.668;2023-05-14T02:06:21;101557.66;;;8.43;100.00
12172;BME280;6149;52.418;13.668;2023-05-14T02:08:49;101548.03;;;8.42;100.00
12172;BME280;6149;52.418;13.668;2023-05-14T02:11:16;101543.66;;;8.41;100.00
12172;BME280;6149;52.418;13.668;2023-05-14T02:13:47;101541.94;;;8.40;100.00
12172;BME280;6149;52.418;13.668;2023-05-14T02:16:13;101548.94;;;8.41;100.00
12172;BME280;6149;52.418;13.668;2023-05-14T02:18:40;101542.72;;;8.43;100.00
12172;BME280;6149;52.418;13.668;2023-05-14T02:21:06;101545.31;;;8.45;100.00
12172;BME280;6149;52.418;13.668;2023-05-14T02:23:34;101547.03;;;8.46;100.00
12172;BME280;6149;52.418;13.668;2023-05-14T02:26:02;101543.50;;;8.47;100.00
12172;BME280;6149;52.418;13.668;2023-05-14T02:28:33;101542.59;;;8.48;100.00
12172;BME280;6149;52.418;13.668;2023-05-14T02:31:13;101546.00;;;8.51;100.00
12172;BME280;6149;52.418;13.668;2023-05-14T02:33:41;101543.25;;;8.54;100.00
12172;BME280;6149;52.418;13.668;2023-05-14T02:36:09;101543.13;;;8.59;100.00
12172;BME280;6149;52.418;13.668;2023-05-14T02:38:36;101543.88;;;8.62;100.00
12172;BME280;6149;52.418;13.668;2023-05-14T02:41:03;101543.81;;;8.65;100.00
12172;BME280;6149;52.418;13.668;2023-05-14T02:43:30;101539.31;;;8.69;100.00
12172;BME280;6149;52.418;13.668;2023-05-14T02:45:59;101539.25;;;8.70;100.00
12172;BME280;6149;52.418;13.668;2023-05-14T02:48:27;101538.31;;;8.73;100.00
12172;BME280;6149;52.418;13.668;2023-05-14T02:50:54;101540.94;;;8.73;100.00
12172;BME280;6149;52.418;13.668;2023-05-14T02:53:22;101525.97;;;8.74;100.00
12172;BME280;6149;52.418;13.668;2023-05-14T02:55:49;101536.47;;;8.75;100.00
12172;BME280;6149;52.418;13.668;2023-05-14T02:58:15;101535.53;;;8.78;100.00
12172;BME280;6149;52.418;13.668;2023-05-14T03:00:43;101529.34;;;8.79;100.00
12172;BME280;6149;52.418;13.668;2023-05-14T03:03:09;101523.25;;;8.77;100.00
12172;BME280;6149;52.418;13.668;2023-05-14T03:05:40;101536.38;;;8.78;100.00
12172;BME280;6149;52.418;13.668;2023-05-14T03:08:07;101533.72;;;8.80;100.00
12172;BME280;6149;52.418;13.668;2023-05-14T03:10:35;101535.47;;;8.79;100.00
12172;BME280;6149;52.418;13.668;2023-05-14T03:13:05;101528.47;;;8.78;100.00
12172;BME280;6149;52.418;13.668;2023-05-14T03:15:34;101536.47;;;8.75;100.00
12172;BME280;6149;52.418;13.668;2023-05-14T03:18:02;101537.28;;;8.77;100.00
12172;BME280;6149;52.418;13.668;2023-05-14T03:20:41;101541.66;;;8.78;100.00
12172;BME280;6149;52.418;13.668;2023-05-14T03:23:07;101542.66;;;8.74;100.00
12172;BME280;6149;52.418;13.668;2023-05-14T03:25:34;101547.22;;;8.69;100.00
12172;BME280;6149;52.418;13.668;2023-05-14T03:28:02;101543.81;;;8.65;100.00
12172;BME280;6149;52.418;13.668;2023-05-14T03:30:38;101547.44;;;8.61;100.00
12172;BME280;6149;52.418;13.668;2023-05-14T03:33:06;101546.63;;;8.59;100.00
12172;BME280;6149;52.418;13.668;2023-05-14T03:35:34;101544.06;;;8.56;100.00
12172;BME280;6149;52.418;13.668;2023-05-14T03:38:04;101538.84;;;8.55;100.00
12172;BME280;6149;52.418;13.668;2023-05-14T03:40:32;101542.47;;;8.52;100.00
12172;BME280;6149;52.418;13.668;2023-05-14T03:43:02;101530.19;;;8.51;100.00
12172;BME280;6149;52.418;13.668;2023-05-14T03:45:34;101532.06;;;8.48;100.00
12172;BME280;6149;52.418;13.668;2023-05-14T03:48:01;101539.94;;;8.48;100.00
12172;BME280;6149;52.418;13.668;2023-05-14T03:50:33;101540.81;;;8.48;100.00
12172;BME280;6149;52.418;13.668;2023-05-14T03:53:01;101540.03;;;8.45;100.00
12172;BME280;6149;52.418;13.668;2023-05-14T03:55:29;101533.91;;;8.44;100.00
12172;BME280;6149;52.418;13.668;2023-05-14T03:57:55;101536.63;;;8.41;100.00
12172;BME280;6149;52.418;13.668;2023-05-14T04:00:22;101533.13;;;8.41;100.00
12172;BME280;6149;52.418;13.668;2023-05-14T04:02:48;101538.41;;;8.41;100.00
12172;BME280;6149;52.418;13.668;2023-05-14T04:05:18;101534.94;;;8.38;100.00
12172;BME280;6149;52.418;13.668;2023-05-14T04:07:45;101535.84;;;8.37;100.00
12172;BME280;6149;52.418;13.668;2023-05-14T04:10:14;101539.41;;;8.36;100.00
12172;BME280;6149;52.418;13.668;2023-05-14T04:12:42;101533.31;;;8.34;100.00
12172;BME280;6149;52.418;13.668;2023-05-14T04:15:09;101538.56;;;8.34;100.00
12172;BME280;6149;52.418;13.668;2023-05-14T04:17:40;101531.50;;;8.36;100.00
12172;BME280;6149;52.418;13.668;2023-05-14T04:20:07;101528.81;;;8.38;100.00
12172;BME280;6149;52.418;13.668;2023-05-14T04:22:35;101531.41;;;8.40;100.00
12172;BME280;6149;52.418;13.668;2023-05-14T04:25:05;101534.84;;;8.42;100.00
12172;BME280;6149;52.418;13.668;2023-05-14T04:27:35;101532.13;;;8.45;100.00
12172;BME280;6149;52.418;13.668;2023-05-14T04:30:07;101531.13;;;8.49;100.00
12172;BME280;6149;52.418;13.668;2023-05-14T04:32:35;101533.69;;;8.52;100.00
12172;BME280;6149;52.418;13.668;2023-05-14T04:35:07;101532.66;;;8.56;100.00
12172;BME280;6149;52.418;13.668;2023-05-14T04:37:35;101530.75;;;8.61;100.00
12172;BME280;6149;52.418;13.668;2023-05-14T04:40:04;101525.34;;;8.65;100.00
12172;BME280;6149;52.418;13.668;2023-05-14T04:42:34;101524.34;;;8.69;100.00
12172;BME280;6149;52.418;13.668;2023-05-14T04:45:01;101526.03;;;8.72;100.00
12172;BME280;6149;52.418;13.668;2023-05-14T04:47:30;101519.75;;;8.76;100.00
12172;BME280;6149;52.418;13.668;2023-05-14T04:49:56;101512.59;;;8.80;100.00
12172;BME280;6149;52.418;13.668;2023-05-14T04:52:24;101516.03;;;8.83;100.00
12172;BME280;6149;52.418;13.668;2023-05-14T04:54:51;101515.88;;;8.88;100.00
12172;BME280;6149;52.418;13.668;2023-05-14T04:57:18;101515.69;;;8.92;100.00
12172;BME280;6149;52.418;13.668;2023-05-14T04:59:49;101516.44;;;8.97;100.00
12172;BME280;6149;52.418;13.668;2023-05-14T05:02:17;101527.66;;;9.04;100.00
12172;BME280;6149;52.418;13.668;2023-05-14T05:04:45;101523.91;;;9.11;100.00
12172;BME280;6149;52.418;13.668;2023-05-14T05:07:13;101517.47;;;9.20;100.00
12172;BME280;6149;52.418;13.668;2023-05-14T05:09:41;101518.00;;;9.29;100.00
12172;BME280;6149;52.418;13.668;2023-05-14T05:12:10;101514.09;;;9.41;100.00
12172;BME280;6149;52.418;13.668;2023-05-14T05:14:41;101520.72;;;9.54;100.00
12172;BME280;6149;52.418;13.668;2023-05-14T05:17:09;101508.84;;;9.66;100.00
12172;BME280;6149;52.418;13.668;2023-05-14T05:19:39;101512.78;;;9.79;100.00
12172;BME280;6149;52.418;13.668;2023-05-14T05:22:06;101509.66;;;9.93;100.00
12172;BME280;6149;52.418;13.668;2023-05-14T05:24:35;101510.91;;;10.06;100.00
12172;BME280;6149;52.418;13.668;2023-05-14T05:27:01;101512.19;;;10.21;100.00
12172;BME280;6149;52.418;13.668;2023-05-14T05:29:36;101505.53;;;10.34;100.00
12172;BME280;6149;52.418;13.668;2023-05-14T05:32:11;101506.66;;;10.50;100.00
12172;BME280;6149;52.418;13.668;2023-05-14T05:34:40;101507.06;;;10.63;100.00
12172;BME280;6149;52.418;13.668;2023-05-14T05:37:07;101502.06;;;10.77;100.00
12172;BME280;6149;52.418;13.668;2023-05-14T05:39:37;101499.81;;;10.90;100.00
12172;BME280;6149;52.418;13.668;2023-05-14T05:42:04;101499.25;;;11.03;100.00
12172;BME280;6149;52.418;13.668;2023-05-14T05:44:32;101499.47;;;11.19;100.00
12172;BME280;6149;52.418;13.668;2023-05-14T05:46:59;101492.75;;;11.32;100.00
12172;BME280;6149;52.418;13.668;2023-05-14T05:49:27;101498.13;;;11.51;100.00
12172;BME280;6149;52.418;13.668;2023-05-14T05:51:54;101499.78;;;11.74;100.00
12172;BME280;6149;52.418;13.668;2023-05-14T05:54:22;101495.28;;;11.96;97.42
12172;BME280;6149;52.418;13.668;2023-05-14T05:56:49;101490.81;;;12.17;97.90
12172;BME280;6149;52.418;13.668;2023-05-14T05:59:16;101490.16;;;12.31;92.90
12172;BME280;6149;52.418;13.668;2023-05-14T06:01:42;101495.78;;;12.44;91.06
12172;BME280;6149;52.418;13.668;2023-05-14T06:04:10;101493.22;;;12.61;91.00
12172;BME280;6149;52.418;13.668;2023-05-14T06:06:39;101498.13;;;12.68;87.18
12172;BME280;6149;52.418;13.668;2023-05-14T06:09:06;101502.00;;;12.80;86.72
12172;BME280;6149;52.418;13.668;2023-05-14T06:11:33;101501.56;;;12.89;86.22
12172;BME280;6149;52.418;13.668;2023-05-14T06:13:59;101509.41;;;13.10;84.99
12172;BME280;6149;52.418;13.668;2023-05-14T06:16:26;101505.25;;;13.23;80.92
12172;BME280;6149;52.418;13.668;2023-05-14T06:18:53;101499.25;;;13.36;82.27
12172;BME280;6149;52.418;13.668;2023-05-14T06:21:21;101501.44;;;13.46;81.09
12172;BME280;6149;52.418;13.668;2023-05-14T06:23:50;101498.63;;;13.49;80.04
12172;BME280;6149;52.418;13.668;2023-05-14T06:26:18;101499.00;;;13.58;79.45
12172;BME280;6149;52.418;13.668;2023-05-14T06:28:48;101506.53;;;13.67;77.88
12172;BME280;6149;52.418;13.668;2023-05-14T06:31:18;101508.38;;;13.83;76.90
12172;BME280;6149;52.418;13.668;2023-05-14T06:33:46;101506.31;;;13.88;76.80
12172;BME280;6149;52.418;13.668;2023-05-14T06:36:14;101502.41;;;13.95;77.01
12172;BME280;6149;52.418;13.668;2023-05-14T06:38:42;101502.56;;;14.09;75.47
12172;BME280;6149;52.418;13.668;2023-05-14T06:41:10;101503.75;;;14.19;73.24
12172;BME280;6149;52.418;13.668;2023-05-14T06:43:40;101505.06;;;14.28;72.61
12172;BME280;6149;52.418;13.668;2023-05-14T06:46:07;101502.59;;;14.41;72.89
12172;BME280;6149;52.418;13.668;2023-05-14T06:48:34;101494.22;;;14.48;73.75
12172;BME280;6149;52.418;13.668;2023-05-14T06:51:00;101495.50;;;14.57;72.54
12172;BME280;6149;52.418;13.668;2023-05-14T06:53:28;101498.38;;;14.69;72.62
12172;BME280;6149;52.418;13.668;2023-05-14T06:55:55;101499.56;;;14.80;74.30
12172;BME280;6149;52.418;13.668;2023-05-14T06:58:23;101499.63;;;14.94;72.43
12172;BME280;6149;52.418;13.668;2023-05-14T07:00:51;101496.88;;;15.11;68.74
12172;BME280;6149;52.418;13.668;2023-05-14T07:03:19;101492.84;;;15.34;69.34
12172;BME280;6149;52.418;13.668;2023-05-14T07:05:46;101499.09;;;15.49;63.24
12172;BME280;6149;52.418;13.668;2023-05-14T07:08:14;101494.50;;;15.66;64.66
12172;BME280;6149;52.418;13.668;2023-05-14T07:10:40;101489.50;;;15.90;63.52
12172;BME280;6149;52.418;13.668;2023-05-14T07:13:08;101486.16;;;16.01;63.61
12172;BME280;6149;52.418;13.668;2023-05-14T07:15:36;101490.84;;;16.12;nan
12172;BME280;6149;52.418;13.668;2023-05-14T07:18:04;101479.97;;;16.29;62.16
12172;BME280;6149;52.418;13.668;2023-05-14T07:20:31;101493.47;;;16.40;60.02
12172;BME280;6149;52.418;13.668;2023-05-14T07:22:58;101485.84;;;16.62;58.03
12172;BME280;6149;52.418;13.668;2023-05-14T07:25:25;101486.53;;;16.66;59.18
12172;BME280;6149;52.418;13.668;2023-05-14T07:27:52;101489.03;;;16.82;59.74
12172;BME280;6149;52.418;13.668;2023-05-14T07:30:21;101480.78;;;16.99;58.98
12172;BME280;6149;52.418;13.668;2023-05-14T07:32:50;101473.88;;;17.09;60.53
12172;BME280;6149;52.418;13.668;2023-05-14T07:35:18;101483.00;;;17.19;56.71
12172;BME280;6149;52.418;13.668;2023-05-14T07:37:48;101465.28;;;17.31;59.84
12172;BME280;6149;52.418;13.668;2023-05-14T07:40:16;101465.72;;;17.37;55.92
12172;BME280;6149;52.418;13.668;2023-05-14T07:42:50;101468.28;;;17.52;55.06
12172;BME280;6149;52.418;13.668;2023-05-14T07:45:18;101457.34;;;17.69;54.72
12172;BME280;6149;52.418;13.668;2023-05-14T07:47:47;101463.44;;;17.84;53.67
12172;BME280;6149;52.418;13.668;2023-05-14T07:50:18;101454.13;;;17.89;52.36
12172;BME280;6149;52.418;13.668;2023-05-14T07:52:47;101459.47;;;18.02;52.23
12172;BME280;6149;52.418;13.668;2023-05-14T07:55:15;101447.53;;;18.31;51.51
12172;BME280;6149;52.418;13.668;2023-05-14T07:57:43;101449.78;;;18.37;51.59
12172;BME280;6149;52.418;13.668;2023-05-14T08:00:17;101449.56;;;18.41;51.40
12172;BME280;6149;52.418;13.668;2023-05-14T08:02:47;101445.25;;;18.51;50.52
12172;BME280;6149;52.418;13.668;2023-05-14T08:05:21;101447.19;;;18.49;49.27
12172;BME280;6149;52.418;13.668;2023-05-14T08:07:48;101445.25;;;18.51;50.00
12172;BME280;6149;52.418;13.668;2023-05-14T08:10:16;101436.97;;;18.66;47.84
12172;BME280;6149;52.418;13.668;2023-05-14T08:12:44;101449.00;;;18.85;49.45
12172;BME280;6149;52.418;13.668;2023-05-14T08:15:13;101441.50;;;19.01;48.99
12172;BME280;6149;52.418;13.668;2023-05-14T08:17:42;101428.78;;;19.16;47.02
12172;BME280;6149;52.418;13.668;2023-05-14T08:20:10;101439.81;;;19.35;47.74
12172;BME280;6149;52.418;13.668;2023-05-14T08:22:39;101431.88;;;19.68;49.50
12172;BME280;6149;52.418;13.668;2023-05-14T08:25:06;101428.63;;;19.98;45.64
12172;BME280;6149;52.418;13.668;2023-05-14T08:27:34;101430.78;;;20.27;45.60
12172;BME280;6149;52.418;13.668;2023-05-14T08:30:01;101425.28;;;20.51;43.95
12172;BME280;6149;52.418;13.668;2023-05-14T08:32:28;101421.34;;;20.66;44.14
12172;BME280;6149;52.418;13.668;2023-05-14T08:34:54;101430.50;;;20.75;42.10
12172;BME280;6149;52.418;13.668;2023-05-14T08:37:21;101426.44;;;21.12;43.21
12172;BME280;6149;52.418;13.668;2023-05-14T08:39:49;101418.06;;;21.26;40.65
12172;BME280;6149;52.418;13.668;2023-05-14T08:42:19;101421.09;;;21.33;41.89
12172;BME280;6149;52.418;13.668;2023-05-14T08:44:55;101415.75;;;21.22;39.65
12172;BME280;6149;52.418;13.668;2023-05-14T08:47:25;101414.81;;;21.44;40.94
12172;BME280;6149;52.418;13.668;2023-05-14T08:50:00;101407.41;;;21.66;39.97
12172;BME280;6149;52.418;13.668;2023-05-14T08:52:29;101409.25;;;21.96;41.25
12172;BME280;6149;52.418;13.668;2023-05-14T08:54:58;101409.97;;;22.19;39.71
12172;BME280;6149;52.418;13.668;2023-05-14T08:57:27;101402.41;;;22.13;37.54
12172;BME280;6149;52.418;13.668;2023-05-14T08:59:57;101407.72;;;22.24;37.77
12172;BME280;6149;52.418;13.668;2023-05-14T09:02:28;101389.72;;;22.44;36.45
12172;BME280;6149;52.418;13.668;2023-05-14T09:04:58;101398.25;;;22.68;36.57
12172;BME280;6149;52.418;13.668;2023-05-14T09:07:25;101388.97;;;22.92;37.56
12172;BME280;6149;52.418;13.668;2023-05-14T09:09:52;101384.97;;;23.06;36.35
12172;BME280;6149;52.418;13.668;2023-05-14T09:12:21;101377.00;;;23.23;36.75
12172;BME280;6149;52.418;13.668;2023-05-14T09:14:49;101373.31;;;23.34;35.88
12172;BME280;6149;52.418;13.668;2023-05-14T09:17:17;101376.38;;;23.58;36.38
12172;BME280;6149;52.418;13.668;2023-05-14T09:19:46;101371.91;;;23.77;35.44
12172;BME280;6149;52.418;13.668;2023-05-14T09:22:15;101372.22;;;23.74;33.48
12172;BME280;6149;52.418;13.668;2023-05-14T09:24:45;101368.09;;;24.07;33.78
12172;BME280;6149;52.418;13.668;2023-05-14T09:27:17;101363.75;;;24.14;34.64
12172;BME280;6149;52.418;13.668;2023-05-14T09:29:51;101358.13;;;24.07;33.52
12172;BME280;6149;52.418;13.668;2023-05-14T09:32:19;101358.72;;;24.01;34.29
12172;BME280;6149;52.418;13.668;2023-05-14T09:34:47;101349.91;;;23.99;33.74
12172;BME280;6149;52.418;13.668;2023-05-14T09:37:14;101347.09;;;23.63;32.87
12172;BME280;6149;52.418;13.668;2023-05-14T09:39:41;101342.34;;;23.19;33.74
12172;BME280;6149;52.418;13.668;2023-05-14T09:42:08;101346.22;;;22.87;34.32
12172;BME280;6149;52.418;13.668;2023-05-14T09:44:34;101341.53;;;22.99;35.73
12172;BME280;6149;52.418;13.668;2023-05-14T09:47:05;101341.25;;;22.92;34.85
12172;BME280;6149;52.418;13.668;2023-05-14T09:49:31;101339.84;;;22.88;35.30
12172;BME280;6149;52.418;13.668;2023-05-14T09:51:58;101339.78;;;22.69;34.72
12172;BME280;6149;52.418;13.668;2023-05-14T09:54:27;101330.56;;;22.43;33.98
12172;BME280;6149;52.418;13.668;2023-05-14T09:56:55;101326.72;;;22.26;35.22
12172;BME280;6149;52.418;13.668;2023-05-14T09:59:22;101329.56;;;21.94;35.32
12172;BME280;6149;52.418;13.668;2023-05-14T10:01:49;101322.78;;;21.90;35.71
12172;BME280;6149;52.418;13.668;2023-05-14T10:04:22;101320.06;;;22.20;35.16
12172;BME280;6149;52.418;13.668;2023-05-14T10:06:52;101315.41;;;22.51;35.45
12172;BME280;6149;52.418;13.668;2023-05-14T10:09:21;101313.56;;;22.52;34.98
12172;BME280;6149;52.418;13.668;2023-05-14T10:11:52;101314.38;;;22.23;35.19
12172;BME280;6149;52.418;13.668;2023-05-14T10:14:24;101320.44;;;22.06;35.23
12172;BME280;6149;52.418;13.668;2023-05-14T10:16:52;101309.38;;;21.69;35.91
12172;BME280;6149;52.418;13.668;2023-05-14T10:19:23;101304.94;;;21.58;37.02
12172;BME280;6149;52.418;13.668;2023-05-14T10:21:54;101304.53;;;21.63;37.47
12172;BME280;6149;52.418;13.668;2023-05-14T10:24:22;101297.41;;;21.92;35.91
12172;BME280;6149;52.418;13.668;2023-05-14T10:26:50;101295.25;;;21.77;35.68
12172;BME280;6149;52.418;13.668;2023-05-14T10:29:18;101300.09;;;21.92;36.16
12172;BME280;6149;52.418;13.668;2023-05-14T10:31:48;101287.47;;;21.83;35.82
12172;BME280;6149;52.418;13.668;2023-05-14T10:34:35;101295.66;;;21.72;36.39
12172;BME280;6149;52.418;13.668;2023-05-14T10:37:07;101294.25;;;21.78;34.94
12172;BME280;6149;52.418;13.668;2023-05-14T10:39:42;101287.56;;;21.72;36.48
12172;BME280;6149;52.418;13.668;2023-05-14T10:42:29;101285.47;;;21.76;35.36
12172;BME280;6149;52.418;13.668;2023-05-14T10:45:03;101290.75;;;21.56;37.18
12172;BME280;6149;52.418;13.668;2023-05-14T10:47:32;101279.94;;;21.37;37.66
12172;BME280;6149;52.418;13.668;2023-05-14T10:50:02;101275.28;;;20.97;38.22
12172;BME280;6149;52.418;13.668;2023-05-14T10:52:32;101277.78;;;20.89;38.75
12172;BME280;6149;52.418;13.668;2023-05-14T10:55:00;101272.50;;;20.78;39.01
12172;BME280;6149;52.418;13.668;2023-05-14T10:57:28;101269.84;;;20.67;41.52
12172;BME280;6149;52.418;13.668;2023-05-14T10:59:59;101269.84;;;20.67;40.43
12172;BME280;6149;52.418;13.668;2023-05-14T11:02:32;101267.25;;;20.77;40.05
12172;BME280;6149;52.418;13.668;2023-05-14T11:05:03;101260.81;;;20.68;40.96
12172;BME280;6149;52.418;13.668;2023-05-14T11:07:33;101261.66;;;20.68;41.51
12172;BME280;6149;52.418;13.668;2023-05-14T11:10:03;101263.09;;;20.73;40.55
12172;BME280;6149;52.418;13.668;2023-05-14T11:12:32;101254.06;;;20.74;41.73
12172;BME280;6149;52.418;13.668;2023-05-14T11:15:01;101258.84;;;20.70;40.63
12172;BME280;6149;52.418;13.668;2023-05-14T11:17:30;101257.84;;;20.71;42.01
12172;BME280;6149;52.418;13.668;2023-05-14T11:19:58;101256.78;;;20.62;42.61
12172;BME280;6149;52.418;13.668;2023-05-14T11:22:28;101251.81;;;20.58;41.69
12172;BME280;6149;52.418;13.668;2023-05-14T11:24:54;101257.03;;;20.39;41.59
12172;BME280;6149;52.418;13.668;2023-05-14T11:27:21;101253.09;;;20.43;42.26
12172;BME280;6149;52.418;13.668;2023-05-14T11:29:51;101252.66;;;20.38;42.52
12172;BME280;6149;52.418;13.668;2023-05-14T11:32:21;101245.72;;;20.24;42.57
12172;BME280;6149;52.418;13.668;2023-05-14T11:34:49;101245.72;;;20.24;43.16
12172;BME280;6149;52.418;13.668;2023-05-14T11:37:17;101238.63;;;20.23;42.16
12172;BME280;6149;52.418;13.668;2023-05-14T11:39:49;101228.47;;;20.26;42.20
12172;BME280;6149;52.418;13.668;2023-05-14T11:42:17;101227.13;;;20.32;43.25
12172;BME280;6149;52.418;13.668;2023-05-14T11:44:46;101235.44;;;20.40;40.93
12172;BME280;6149;52.418;13.668;2023-05-14T11:47:18;101222.25;;;20.58;41.03
12172;BME280;6149;52.418;13.668;2023-05-14T11:49:46;101218.31;;;20.62;41.18
12172;BME280;6149;52.418;13.668;2023-05-14T11:52:15;101218.41;;;20.72;42.77
12172;BME280;6149;52.418;13.668;2023-05-14T11:54:47;101214.19;;;20.79;41.61
12172;BME280;6149;52.418;13.668;2023-05-14T11:57:18;101217.78;;;20.89;41.82
12172;BME280;6149;52.418;13.668;2023-05-14T11:59:47;101215.47;;;20.84;40.23
12172;BME280;6149;52.418;13.668;2023-05-14T12:02:17;101212.75;;;20.75;41.30
12172;BME280;6149;52.418;13.668;2023-05-14T12:04:49;101206.06;;;20.69;41.18
12172;BME280;6149;52.418;13.668;2023-05-14T12:07:17;101198.34;;;20.85;40.45
12172;BME280;6149;52.418;13.668;2023-05-14T12:09:47;101185.31;;;20.81;39.81
12172;BME280;6149;52.418;13.668;2023-05-14T12:12:18;101187.44;;;20.77;41.69
12172;BME280;6149;52.418;13.668;2023-05-14T12:14:48;101187.88;;;20.82;39.33
12172;BME280;6149;52.418;13.668;2023-05-14T12:17:19;101189.50;;;20.94;38.06
12172;BME280;6149;52.418;13.668;2023-05-14T12:19:47;101190.88;;;20.89;37.95
12172;BME280;6149;52.418;13.668;2023-05-14T12:22:18;101178.47;;;20.97;40.08
12172;BME280;6149;52.418;13.668;2023-05-14T12:24:53;101178.94;;;21.02;38.40
12172;BME280;6149;52.418;13.668;2023-05-14T12:27:21;101177.09;;;21.03;38.77
12172;BME280;6149;52.418;13.668;2023-05-14T12:29:50;101185.25;;;20.92;39.26
12172;BME280;6149;52.418;13.668;2023-05-14T12:32:24;101176.00;;;20.85;37.83
12172;BME280;6149;52.418;13.668;2023-05-14T12:34:52;101174.78;;;20.68;37.18
12172;BME280;6149;52.418;13.668;2023-05-14T12:37:19;101183.19;;;20.54;36.95
12172;BME280;6149;52.418;13.668;2023-05-14T12:39:48;101174.00;;;20.35;38.81
12172;BME280;6149;52.418;13.668;2023-05-14T12:42:20;101174.25;;;20.32;38.75
12172;BME280;6149;52.418;13.668;2023-05-14T12:44:47;101168.16;;;20.30;39.23
12172;BME280;6149;52.418;13.668;2023-05-14T12:47:18;101173.91;;;20.26;39.51
12172;BME280;6149;52.418;13.668;2023-05-14T12:49:46;101167.56;;;20.27;39.79
12172;BME280;6149;52.418;13.668;2023-05-14T12:52:15;101165.16;;;20.45;37.82
12172;BME280;6149;52.418;13.668;2023-05-14T12:54:44;101158.81;;;20.46;38.27
12172;BME280;6149;52.418;13.668;2023-05-14T12:57:13;101157.94;;;20.45;39.31
12172;BME280;6149;52.418;13.668;2023-05-14T12:59:44;101152.69;;;20.44;38.05